createdAt,value
2017-11-08T00:00:39.635Z,31.20
2017-11-08T00:03:07.176Z,25.83
2017-11-08T00:05:35.487Z,26.33
2017-11-08T00:08:03.047Z,25.30
2017-11-08T00:10:30.594Z,29.03
2017-11-08T00:12:58.269Z,29.97
2017-11-08T00:15:25.832Z,28.47
2017-11-08T00:17:55.408Z,28.13
2017-11-08T00:20:23.004Z,25.83
2017-11-08T00:22:50.571Z,26.57
2017-11-08T00:25:18.103Z,27.23
2017-11-08T00:27:45.646Z,23.13
2017-11-08T00:30:13.220Z,24.47
2017-11-08T00:32:40.760Z,27.70
2017-11-08T00:35:08.289Z,25.37
2017-11-08T00:37:35.846Z,28.87
2017-11-08T00:40:03.393Z,26.63
2017-11-08T00:42:30.927Z,27.03
2017-11-08T00:44:58.487Z,30.27
2017-11-08T00:47:26.014Z,26.40
2017-11-08T00:49:53.572Z,28.50
2017-11-08T00:52:21.141Z,28.00
2017-11-08T00:54:49.437Z,31.10
2017-11-08T01:00:15.981Z,27.47
2017-11-08T01:02:43.558Z,29.77
2017-11-08T01:05:11.105Z,25.07
2017-11-08T01:07:38.640Z,25.30
2017-11-08T01:10:06.211Z,26.83
2017-11-08T01:12:34.525Z,28.40
2017-11-08T01:15:02.060Z,22.93
2017-11-08T01:17:29.608Z,24.27
2017-11-08T01:19:57.146Z,27.27
2017-11-08T01:22:24.685Z,26.27
2017-11-08T01:24:52.242Z,27.70
2017-11-08T01:27:19.776Z,31.93
2017-11-08T01:29:47.306Z,27.43
2017-11-08T01:32:14.873Z,26.27
2017-11-08T01:34:42.416Z,23.53
2017-11-08T01:40:14.962Z,26.23
2017-11-08T01:42:42.527Z,26.93
2017-11-08T01:45:10.102Z,27.67
2017-11-08T01:47:37.657Z,28.77
2017-11-08T01:50:05.998Z,26.17
2017-11-08T01:52:33.535Z,24.10
2017-11-08T01:55:01.091Z,19.43
2017-11-08T01:57:28.655Z,26.60
2017-11-08T01:59:56.188Z,27.90
2017-11-08T02:02:23.724Z,26.67
2017-11-08T02:04:51.281Z,24.87
2017-11-08T02:07:18.807Z,25.83
2017-11-08T02:09:46.350Z,26.97
2017-11-08T02:12:13.929Z,23.67
2017-11-08T02:14:42.235Z,25.10
2017-11-08T02:17:09.783Z,25.83
2017-11-08T02:19:40.751Z,27.37
2017-11-08T02:22:10.448Z,23.43
2017-11-08T02:24:41.623Z,29.00
2017-11-08T02:27:12.363Z,30.40
2017-11-08T02:29:40.080Z,27.10
2017-11-08T02:32:07.629Z,29.73
2017-11-08T02:34:35.171Z,30.37
2017-11-08T02:37:02.704Z,25.30
2017-11-08T02:39:30.269Z,28.00
2017-11-08T02:41:57.874Z,29.17
2017-11-08T02:44:25.408Z,27.50
2017-11-08T02:46:58.931Z,22.43
2017-11-08T02:49:26.534Z,25.83
2017-11-08T02:51:54.081Z,31.00
2017-11-08T02:54:23.599Z,29.17
2017-11-08T02:56:51.894Z,28.00
2017-11-08T02:59:19.443Z,27.50
2017-11-08T03:01:47.000Z,27.13
2017-11-08T03:04:14.545Z,30.73
2017-11-08T03:06:42.101Z,30.13
2017-11-08T03:09:09.665Z,30.50
2017-11-08T03:11:37.986Z,30.93
2017-11-08T03:14:05.545Z,31.40
2017-11-08T03:16:33.109Z,33.27
2017-11-08T03:19:00.645Z,27.07
2017-11-08T03:21:28.189Z,25.03
2017-11-08T03:23:55.752Z,32.03
2017-11-08T03:26:23.296Z,30.07
2017-11-08T03:28:50.823Z,32.63
2017-11-08T03:31:18.406Z,30.13
2017-11-08T03:33:45.967Z,29.00
2017-11-08T03:36:13.512Z,28.93
2017-11-08T03:38:41.074Z,29.90
2017-11-08T03:41:08.635Z,27.70
2017-11-08T03:43:36.236Z,28.60
2017-11-08T03:46:03.807Z,26.07
2017-11-08T03:48:31.333Z,25.03
2017-11-08T03:50:58.861Z,32.47
2017-11-08T03:53:26.418Z,30.10
2017-11-08T03:55:53.964Z,30.77
2017-11-08T03:58:21.507Z,24.70
2017-11-08T04:00:49.070Z,31.87
2017-11-08T04:03:16.636Z,28.57
2017-11-08T04:05:44.179Z,29.77
2017-11-08T04:08:11.716Z,25.90
2017-11-08T04:10:39.252Z,23.80
2017-11-08T04:13:06.805Z,21.07
2017-11-08T04:15:34.356Z,27.97
2017-11-08T04:18:01.894Z,27.87
2017-11-08T04:20:29.444Z,28.07
2017-11-08T04:22:56.999Z,32.00
2017-11-08T04:25:24.538Z,29.43
2017-11-08T04:27:52.096Z,26.70
2017-11-08T04:30:19.650Z,32.60
2017-11-08T04:32:47.173Z,26.83
2017-11-08T04:35:14.701Z,31.40
2017-11-08T04:37:42.245Z,26.07
2017-11-08T04:40:09.782Z,27.63
2017-11-08T04:42:37.316Z,34.93
2017-11-08T04:45:05.432Z,29.00
2017-11-08T04:47:32.973Z,28.93
2017-11-08T04:50:00.507Z,33.13
2017-11-08T04:52:28.076Z,27.53
2017-11-08T04:54:56.383Z,31.13
2017-11-08T04:57:23.902Z,30.50
2017-11-08T04:59:51.498Z,34.97
2017-11-08T05:02:19.013Z,37.43
2017-11-08T05:04:46.534Z,35.03
2017-11-08T05:07:14.100Z,37.43
2017-11-08T05:09:41.657Z,38.60
2017-11-08T05:12:09.187Z,33.33
2017-11-08T05:14:36.736Z,30.33
2017-11-08T05:17:04.267Z,32.87
2017-11-08T05:19:31.786Z,34.03
2017-11-08T05:21:59.347Z,34.50
2017-11-08T05:24:26.880Z,32.57
2017-11-08T05:26:55.179Z,37.97
2017-11-08T05:29:22.759Z,46.30
2017-11-08T05:31:50.286Z,36.30
2017-11-08T05:34:17.811Z,34.47
2017-11-08T05:36:45.368Z,47.57
2017-11-08T05:39:12.908Z,37.80
2017-11-08T05:41:40.435Z,42.23
2017-11-08T05:44:07.989Z,36.20
2017-11-08T05:46:36.280Z,42.73
2017-11-08T05:49:03.806Z,47.93
2017-11-08T05:51:31.366Z,45.00
2017-11-08T05:53:58.923Z,42.93
2017-11-08T05:56:26.462Z,38.00
2017-11-08T05:58:54.012Z,42.40
2017-11-08T06:01:21.550Z,36.60
2017-11-08T06:03:49.075Z,37.27
2017-11-08T06:06:16.643Z,44.33
2017-11-08T06:08:44.536Z,44.27
2017-11-08T06:11:12.062Z,42.40
2017-11-08T06:13:40.386Z,33.83
2017-11-08T06:16:07.941Z,40.13
2017-11-08T06:18:35.497Z,38.77
2017-11-08T06:21:04.034Z,47.33
2017-11-08T06:23:31.571Z,46.17
2017-11-08T06:25:59.108Z,42.67
2017-11-08T06:28:26.648Z,38.70
2017-11-08T06:30:54.950Z,36.20
2017-11-08T06:33:22.476Z,41.50
2017-11-08T06:35:50.042Z,37.63
2017-11-08T06:38:17.596Z,38.90
2017-11-08T06:40:45.136Z,47.13
2017-11-08T06:43:12.693Z,41.63
2017-11-08T06:45:41.034Z,37.50
2017-11-08T06:48:08.783Z,37.83
2017-11-08T06:50:38.183Z,42.20
2017-11-08T06:53:05.722Z,43.60
2017-11-08T06:55:36.022Z,46.80
2017-11-08T06:58:03.596Z,40.83
2017-11-08T07:00:31.919Z,41.53
2017-11-08T07:02:59.463Z,39.57
2017-11-08T07:05:27.021Z,44.60
2017-11-08T07:07:54.567Z,40.03
2017-11-08T07:10:22.124Z,35.23
2017-11-08T07:12:49.684Z,45.63
2017-11-08T07:15:18.113Z,47.17
2017-11-08T07:17:45.634Z,45.93
2017-11-08T07:20:13.199Z,43.97
2017-11-08T07:22:40.735Z,42.83
2017-11-08T07:25:08.297Z,43.57
2017-11-08T07:27:35.871Z,53.90
2017-11-08T07:30:04.282Z,46.60
2017-11-08T07:32:31.896Z,47.37
2017-11-08T07:34:59.508Z,38.10
2017-11-08T07:37:27.232Z,41.93
2017-11-08T07:39:54.896Z,48.27
2017-11-08T07:42:22.459Z,50.80
2017-11-08T07:44:50.000Z,39.63
2017-11-08T07:47:18.386Z,35.10
2017-11-08T07:49:47.161Z,50.50
2017-11-08T07:52:14.755Z,43.50
2017-11-08T07:57:54.992Z,47.13
2017-11-08T08:00:22.645Z,48.67
2017-11-08T08:02:50.159Z,43.43
2017-11-08T08:05:17.688Z,48.83
2017-11-08T08:07:46.283Z,49.13
2017-11-08T08:10:13.806Z,41.93
2017-11-08T08:12:41.324Z,53.10
2017-11-08T08:15:08.883Z,46.90
2017-11-08T08:17:36.435Z,42.83
2017-11-08T08:20:07.831Z,42.23
2017-11-08T08:22:35.382Z,52.77
2017-11-08T08:25:02.904Z,39.70
2017-11-08T08:27:30.430Z,48.43
2017-11-08T08:29:57.967Z,49.80
2017-11-08T08:32:25.475Z,51.47
2017-11-08T08:34:53.017Z,49.47
2017-11-08T08:37:20.567Z,42.03
2017-11-08T08:39:48.084Z,46.43
2017-11-08T08:42:15.622Z,48.67
2017-11-08T08:44:43.174Z,46.87
2017-11-08T08:47:10.700Z,43.47
2017-11-08T08:49:38.231Z,55.37
2017-11-08T08:52:05.788Z,62.00
2017-11-08T08:54:33.323Z,53.57
2017-11-08T08:57:01.626Z,52.60
2017-11-08T08:59:29.177Z,60.93
2017-11-08T09:01:56.699Z,57.27
2017-11-08T09:04:24.266Z,62.10
2017-11-08T09:06:52.811Z,46.93
2017-11-08T09:09:20.345Z,48.60
2017-11-08T09:11:47.873Z,55.60
2017-11-08T09:14:15.435Z,63.53
2017-11-08T09:16:43.660Z,41.47
2017-11-08T09:19:11.196Z,40.73
2017-11-08T09:21:38.777Z,52.47
2017-11-08T09:24:06.316Z,42.83
2017-11-08T09:26:33.981Z,50.80
2017-11-08T09:29:04.272Z,40.57
2017-11-08T09:31:37.201Z,40.83
2017-11-08T09:34:04.795Z,41.33
2017-11-08T09:36:35.104Z,46.63
2017-11-08T09:39:02.625Z,45.83
2017-11-08T09:41:32.095Z,42.57
2017-11-08T09:43:59.687Z,44.67
2017-11-08T09:46:29.035Z,63.17
2017-11-08T09:48:56.594Z,55.47
2017-11-08T09:51:24.139Z,46.47
2017-11-08T09:53:51.675Z,53.83
2017-11-08T09:56:19.216Z,57.13
2017-11-08T09:58:46.753Z,51.73
2017-11-08T10:01:15.922Z,46.93
2017-11-08T10:03:44.248Z,45.47
2017-11-08T10:06:11.786Z,47.57
2017-11-08T10:08:41.099Z,56.87
2017-11-08T10:11:23.541Z,47.03
2017-11-08T10:13:51.072Z,54.70
2017-11-08T10:16:18.598Z,47.93
2017-11-08T10:18:47.216Z,49.20
2017-11-08T10:21:14.754Z,48.30
2017-11-08T10:23:42.290Z,49.83
2017-11-08T10:26:09.836Z,56.03
2017-11-08T10:28:37.532Z,49.63
2017-11-08T10:31:05.099Z,67.47
2017-11-08T10:33:32.663Z,51.23
2017-11-08T10:36:00.193Z,45.40
2017-11-08T10:38:27.722Z,53.43
2017-11-08T10:40:56.043Z,58.47
2017-11-08T10:43:23.527Z,55.63
2017-11-08T10:45:51.053Z,50.90
2017-11-08T10:48:18.617Z,48.30
2017-11-08T10:50:46.140Z,56.57
2017-11-08T10:53:13.683Z,58.00
2017-11-08T10:55:41.265Z,42.23
2017-11-08T10:58:08.798Z,48.20
2017-11-08T11:00:37.235Z,54.73
2017-11-08T11:03:06.443Z,56.50
2017-11-08T11:05:34.738Z,62.27
2017-11-08T11:08:02.278Z,65.27
2017-11-08T11:10:29.853Z,50.53
2017-11-08T11:13:03.371Z,76.67
2017-11-08T11:15:30.941Z,57.23
2017-11-08T11:17:58.498Z,55.07
2017-11-08T11:20:27.829Z,56.50
2017-11-08T11:22:56.152Z,48.27
2017-11-08T11:25:26.312Z,52.83
2017-11-08T11:27:53.840Z,64.00
2017-11-08T11:30:25.932Z,48.43
2017-11-08T11:32:53.455Z,50.10
2017-11-08T11:35:21.012Z,46.93
2017-11-08T11:37:49.051Z,48.40
2017-11-08T11:40:17.362Z,60.50
2017-11-08T11:42:44.961Z,55.47
2017-11-08T11:45:12.579Z,57.97
2017-11-08T11:47:40.111Z,58.60
2017-11-08T11:50:07.755Z,48.87
2017-11-08T11:52:35.427Z,63.87
2017-11-08T11:55:03.753Z,67.07
2017-11-08T11:57:31.309Z,56.50
2017-11-08T12:00:05.456Z,61.73
2017-11-08T12:02:32.979Z,53.20
2017-11-08T12:05:01.346Z,61.57
2017-11-08T12:07:32.637Z,67.57
2017-11-08T12:10:02.963Z,69.37
2017-11-08T12:12:30.501Z,65.83
2017-11-08T12:14:58.055Z,54.67
2017-11-08T12:17:25.588Z,69.83
2017-11-08T12:19:53.131Z,62.03
2017-11-08T12:22:20.689Z,62.03
2017-11-08T12:24:48.229Z,60.03
2017-11-08T12:27:15.777Z,65.83
2017-11-08T12:29:43.326Z,70.67
2017-11-08T12:32:10.859Z,60.60
2017-11-08T12:34:39.340Z,68.83
2017-11-08T12:37:06.893Z,75.93
2017-11-08T12:39:35.244Z,79.40
2017-11-08T12:42:03.552Z,63.57
2017-11-08T12:47:33.181Z,72.53
2017-11-08T12:50:00.764Z,65.50
2017-11-08T12:52:29.053Z,68.80
2017-11-08T12:54:56.590Z,56.93
2017-11-08T12:57:24.150Z,69.83
2017-11-08T12:59:51.691Z,63.80
2017-11-08T13:02:19.226Z,60.23
2017-11-08T13:04:46.824Z,63.10
2017-11-08T13:07:14.376Z,65.93
2017-11-08T13:09:41.987Z,70.77
2017-11-08T13:12:09.572Z,61.23
2017-11-08T13:14:37.133Z,64.60
2017-11-08T13:17:05.434Z,63.03
2017-11-08T13:19:32.997Z,63.83
2017-11-08T13:22:00.530Z,58.33
2017-11-08T13:24:28.082Z,65.97
2017-11-08T13:26:55.639Z,58.07
2017-11-08T13:29:23.173Z,59.07
2017-11-08T13:31:50.717Z,56.33
2017-11-08T13:34:18.289Z,61.90
2017-11-08T13:36:45.815Z,66.77
2017-11-08T13:39:13.332Z,76.57
2017-11-08T13:41:40.880Z,65.97
2017-11-08T13:44:08.422Z,64.13
2017-11-08T13:46:36.753Z,71.33
2017-11-08T13:49:05.075Z,65.63
2017-11-08T13:51:32.839Z,65.23
2017-11-08T13:54:00.413Z,67.53
2017-11-08T13:56:28.781Z,74.47
2017-11-08T13:58:56.327Z,64.80
2017-11-08T14:01:23.865Z,72.33
2017-11-08T14:03:52.195Z,71.37
2017-11-08T14:06:19.720Z,71.07
2017-11-08T14:08:47.313Z,62.80
2017-11-08T14:11:15.658Z,76.17
2017-11-08T14:13:43.180Z,67.33
2017-11-08T14:16:10.737Z,65.63
2017-11-08T14:18:38.299Z,77.50
2017-11-08T14:21:05.852Z,78.67
2017-11-08T14:23:33.391Z,72.07
2017-11-08T14:26:00.972Z,85.87
2017-11-08T14:28:28.515Z,83.23
2017-11-08T14:30:58.973Z,75.93
2017-11-08T14:33:26.539Z,74.80
2017-11-08T14:35:54.896Z,92.73
2017-11-08T14:38:22.445Z,73.50
2017-11-08T14:40:50.005Z,69.87
2017-11-08T14:43:18.339Z,71.70
2017-11-08T14:45:45.869Z,69.50
2017-11-08T14:48:13.443Z,78.10
2017-11-08T14:50:40.992Z,69.93
2017-11-08T14:53:08.588Z,68.83
2017-11-08T14:55:36.929Z,79.63
2017-11-08T14:58:04.455Z,71.50
2017-11-08T15:00:32.020Z,79.63
2017-11-08T15:02:59.583Z,70.50
2017-11-08T15:05:27.117Z,80.77
2017-11-08T15:07:54.662Z,70.20
2017-11-08T15:10:22.228Z,87.40
2017-11-08T15:12:49.776Z,87.53
2017-11-08T15:15:28.096Z,82.30
2017-11-08T15:17:56.388Z,70.00
2017-11-08T15:20:23.983Z,75.83
2017-11-08T15:22:51.975Z,93.70
2017-11-08T15:25:19.545Z,108.10
2017-11-08T15:27:47.095Z,87.20
2017-11-08T15:30:20.310Z,82.37
2017-11-08T15:32:48.629Z,76.93
2017-11-08T15:35:16.194Z,89.63
2017-11-08T15:37:43.800Z,86.00
2017-11-08T15:43:11.253Z,98.87
2017-11-08T15:45:39.089Z,111.33
2017-11-08T15:48:07.406Z,95.60
2017-11-08T15:50:34.993Z,99.70
2017-11-08T15:53:02.544Z,103.00
2017-11-08T15:55:30.076Z,76.70
2017-11-08T15:57:58.396Z,80.27
2017-11-08T16:00:25.932Z,98.60
2017-11-08T16:02:53.472Z,96.53
2017-11-08T16:05:21.084Z,101.57
2017-11-08T16:07:48.638Z,89.00
2017-11-08T16:10:16.176Z,86.03
2017-11-08T16:12:44.630Z,104.40
2017-11-08T16:15:12.171Z,78.50
2017-11-08T16:17:40.485Z,87.57
2017-11-08T16:20:13.725Z,100.27
2017-11-08T16:22:41.256Z,80.60
2017-11-08T16:25:08.787Z,83.77
2017-11-08T16:27:37.116Z,76.77
2017-11-08T16:30:04.646Z,109.77
2017-11-08T16:32:32.191Z,105.80
2017-11-08T16:34:59.744Z,83.10
2017-11-08T16:37:27.285Z,87.20
2017-11-08T16:39:54.821Z,99.13
2017-11-08T16:42:22.364Z,88.23
2017-11-08T16:44:49.888Z,97.93
2017-11-08T16:47:17.411Z,90.03
2017-11-08T16:49:44.977Z,97.00
2017-11-08T16:52:12.511Z,82.83
2017-11-08T16:54:40.056Z,90.30
2017-11-08T16:57:07.624Z,107.87
2017-11-08T16:59:35.193Z,103.10
2017-11-08T17:02:02.733Z,105.57
2017-11-08T17:04:30.315Z,109.50
2017-11-08T17:06:58.628Z,92.60
2017-11-08T17:09:26.155Z,106.47
2017-11-08T17:11:53.732Z,94.47
2017-11-08T17:14:21.252Z,83.10
2017-11-08T17:16:48.793Z,95.53
2017-11-08T17:19:16.352Z,79.87
2017-11-08T17:21:43.887Z,75.47
2017-11-08T17:24:11.425Z,96.80
2017-11-08T17:26:38.997Z,84.13
2017-11-08T17:29:06.536Z,115.80
2017-11-08T17:31:34.844Z,75.87
2017-11-08T17:34:03.165Z,82.53
2017-11-08T17:36:30.698Z,85.03
2017-11-08T17:38:58.264Z,83.27
2017-11-08T17:41:25.833Z,72.07
2017-11-08T17:43:54.140Z,73.37
2017-11-08T17:46:21.707Z,64.53
2017-11-08T17:48:49.274Z,52.77
2017-11-08T17:51:27.872Z,54.47
2017-11-08T17:53:55.531Z,63.20
2017-11-08T17:56:24.154Z,59.40
2017-11-08T17:58:51.931Z,43.67
2017-11-08T18:01:19.628Z,50.63
2017-11-08T18:03:47.985Z,57.73
2017-11-08T18:06:15.551Z,49.50
2017-11-08T18:08:43.116Z,52.50
2017-11-08T18:11:10.647Z,59.30
2017-11-08T18:13:38.176Z,46.80
2017-11-08T18:16:05.774Z,46.53
2017-11-08T18:18:33.605Z,44.57
2017-11-08T18:21:01.275Z,52.10
2017-11-08T18:23:29.013Z,44.13
2017-11-08T18:25:56.741Z,52.27
2017-11-08T18:28:24.901Z,37.57
2017-11-08T18:30:52.712Z,39.80
2017-11-08T18:33:20.328Z,39.90
2017-11-08T18:35:47.933Z,41.03
2017-11-08T18:38:15.552Z,45.47
2017-11-08T18:40:43.929Z,42.87
2017-11-08T18:43:11.579Z,43.53
2017-11-08T18:45:39.184Z,57.87
2017-11-08T18:48:06.741Z,54.13
2017-11-08T18:50:34.313Z,46.47
2017-11-08T18:53:01.916Z,38.97
2017-11-08T18:55:29.589Z,42.13
2017-11-08T18:57:57.623Z,47.50
2017-11-08T19:00:35.771Z,45.47
2017-11-08T19:03:03.404Z,43.73
2017-11-08T19:05:31.405Z,40.00
2017-11-08T19:07:59.067Z,37.40
2017-11-08T19:10:27.422Z,41.40
2017-11-08T19:12:56.767Z,47.80
2017-11-08T19:15:25.934Z,41.33
2017-11-08T19:17:54.146Z,44.23
2017-11-08T19:20:21.761Z,40.33
2017-11-08T19:22:49.634Z,38.07
2017-11-08T19:25:17.235Z,41.67
2017-11-08T19:27:45.074Z,38.80
2017-11-08T19:30:12.660Z,51.20
2017-11-08T19:32:40.221Z,47.23
2017-11-08T19:35:07.783Z,40.60
2017-11-08T19:37:36.144Z,44.83
2017-11-08T19:40:03.745Z,49.47
2017-11-08T19:42:31.456Z,36.40
2017-11-08T19:44:59.795Z,35.17
2017-11-08T19:47:27.706Z,41.27
2017-11-08T19:49:55.312Z,42.73
2017-11-08T19:52:22.887Z,53.07
2017-11-08T19:54:50.463Z,37.67
2017-11-08T19:57:18.053Z,31.80
2017-11-08T19:59:46.418Z,38.53
2017-11-08T20:02:14.742Z,35.07
2017-11-08T20:04:42.506Z,43.50
2017-11-08T20:07:10.300Z,43.03
2017-11-08T20:09:38.833Z,33.27
2017-11-08T20:12:06.400Z,34.80
2017-11-08T20:14:34.742Z,43.43
2017-11-08T20:17:02.293Z,38.63
2017-11-08T20:19:31.273Z,45.67
2017-11-08T20:21:59.605Z,36.47
2017-11-08T20:24:27.388Z,40.67
2017-11-08T20:26:55.784Z,36.57
2017-11-08T20:29:23.390Z,38.97
2017-11-08T20:31:51.698Z,46.73
2017-11-08T20:34:19.250Z,43.03
2017-11-08T20:36:47.088Z,58.30
2017-11-08T20:39:14.632Z,58.53
2017-11-08T20:41:42.164Z,38.90
2017-11-08T20:44:10.488Z,38.40
2017-11-08T20:46:38.018Z,39.37
2017-11-08T20:49:05.566Z,44.00
2017-11-08T20:51:33.131Z,42.97
2017-11-08T20:54:00.978Z,34.73
2017-11-08T20:56:28.661Z,35.97
2017-11-08T20:58:56.258Z,34.93
2017-11-08T21:01:23.829Z,41.47
2017-11-08T21:03:51.387Z,36.10
2017-11-08T21:06:18.983Z,40.20
2017-11-08T21:08:46.528Z,41.40
2017-11-08T21:11:14.083Z,36.83
2017-11-08T21:13:41.653Z,32.70
2017-11-08T21:16:09.176Z,39.43
2017-11-08T21:18:36.712Z,35.13
2017-11-08T21:21:04.311Z,39.03
2017-11-08T21:23:32.055Z,40.33
2017-11-08T21:25:59.591Z,44.07
2017-11-08T21:28:28.072Z,45.83
2017-11-08T21:30:55.632Z,32.40
2017-11-08T21:33:23.632Z,36.03
2017-11-08T21:35:51.263Z,37.90
2017-11-08T21:38:21.510Z,50.13
2017-11-08T21:40:51.692Z,40.10
2017-11-08T21:43:20.419Z,38.50
2017-11-08T21:45:48.458Z,44.60
2017-11-08T21:48:18.470Z,53.50
2017-11-08T21:50:46.614Z,59.00
2017-11-08T21:53:28.815Z,49.27
2017-11-08T21:55:58.394Z,39.70
2017-11-08T22:01:21.469Z,45.77
2017-11-08T22:04:01.079Z,44.67
2017-11-08T22:06:30.640Z,31.97
2017-11-08T22:09:11.123Z,45.17
2017-11-08T22:11:39.020Z,34.47
2017-11-08T22:14:07.556Z,46.73
2017-11-08T22:16:35.888Z,39.97
2017-11-08T22:19:04.080Z,35.50
2017-11-08T22:21:32.525Z,44.17
2017-11-08T22:24:00.108Z,42.83
2017-11-08T22:26:29.469Z,39.90
2017-11-08T22:28:57.067Z,40.83
2017-11-08T22:31:24.866Z,44.50
2017-11-08T22:33:52.420Z,38.47
2017-11-08T22:36:20.693Z,36.73
2017-11-08T22:38:49.469Z,30.53
2017-11-08T22:41:18.852Z,31.10
2017-11-08T22:43:46.420Z,44.60
2017-11-08T22:46:13.991Z,38.33
2017-11-08T22:48:41.669Z,41.50
2017-11-08T22:51:09.972Z,46.60
2017-11-08T22:53:38.458Z,35.63
2017-11-08T22:56:06.885Z,34.77
2017-11-08T22:58:34.820Z,38.13
2017-11-08T23:01:02.641Z,52.13
2017-11-08T23:03:30.422Z,35.60
2017-11-08T23:06:07.503Z,26.80
2017-11-08T23:08:42.335Z,35.77
2017-11-08T23:11:11.037Z,39.90
2017-11-08T23:13:43.991Z,44.23
2017-11-08T23:16:13.415Z,37.60
2017-11-08T23:18:49.141Z,43.33
2017-11-08T23:21:22.686Z,33.33
2017-11-08T23:23:56.107Z,37.53
2017-11-08T23:26:24.136Z,38.63
2017-11-08T23:28:51.679Z,40.10
2017-11-08T23:31:19.979Z,36.03
2017-11-08T23:33:47.515Z,43.70
2017-11-08T23:36:15.054Z,35.83
2017-11-08T23:38:42.604Z,35.60
2017-11-08T23:41:10.164Z,39.13
2017-11-08T23:43:37.707Z,35.50
2017-11-08T23:46:05.244Z,32.37
2017-11-08T23:48:32.810Z,39.10
2017-11-08T23:51:00.353Z,32.57
2017-11-08T23:53:27.909Z,39.90
2017-11-08T23:55:55.478Z,38.00
2017-11-08T23:58:23.810Z,27.67
